Time;durP1;ratioP1;P1;durP2;ratioP2;P2;SDS_P1;SDS_P2;PMS_P1;PMS_P2;Temp;Humidity;BMP_temperature;BMP_pressure;BME280_temperature;BME280_humidity;BME280_pressure;Samples;Min_cycle;Max_cycle;Signal;HPM_P1;HPM_P2
2022/02/09 00:00:15;;;;;;;15.10;13.15;;;;;22.10;101590.00;;;;2039070;29;20209;-47
2022/02/09 00:01:57;;;;;;;15.13;13.67;;;;;22.10;101591.00;;;;2038712;29;20978;-47
2022/02/09 00:07:01;;;;;;;12.23;10.93;;;;;22.10;101597.00;;;;2029883;29;20214;-47
2022/02/09 00:08:03;;;;;;;12.15;10.85;;;;;22.00;101598.00;;;;2039067;29;20243;-47
2022/02/09 00:09:04;;;;;;;14.32;12.13;;;;;22.00;101597.00;;;;2038998;29;20611;-47
2022/02/09 00:10:05;;;;;;;12.80;11.50;;;;;22.00;101586.00;;;;2039078;29;20233;-46
2022/02/09 00:11:07;;;;;;;12.65;10.93;;;;;22.00;101581.00;;;;2041983;29;20224;-47
2022/02/09 00:12:15;;;;;;;14.15;11.15;;;;;22.00;101598.00;;;;2039302;29;20225;-47
2022/02/09 00:14:55;;;;;;;14.27;11.75;;;;;22.00;101587.00;;;;2038724;29;21108;-46
2022/02/09 00:16:10;;;;;;;11.10;10.00;;;;;22.00;101587.00;;;;2038590;29;20961;-47
2022/02/09 00:19:25;;;;;;;10.50;9.43;;;;;22.00;101585.00;;;;2038903;29;20232;-47
2022/02/09 00:33:58;;;;;;;9.32;8.43;;;;;21.90;101573.00;;;;2029518;29;20701;-46
2022/02/09 00:36:23;;;;;;;10.45;8.80;;;;;21.90;101564.00;;;;2029200;29;20554;-47
2022/02/09 01:11:39;;;;;;;5.18;4.68;;;;;21.80;101555.00;;;;2045369;28;20216;-47
2022/02/09 01:39:14;;;;;;;3.33;3.00;;;;;21.70;101548.00;;;;2036496;29;20593;-47
2022/02/09 01:55:40;;;;;;;2.80;2.50;;;;;21.70;101536.00;;;;2045894;28;20215;-47
2022/02/09 01:56:40;;;;;;;3.08;2.67;;;;;21.60;101529.00;;;;2045299;28;20204;-47
2022/02/09 01:57:40;;;;;;;3.13;2.50;;;;;21.70;101530.00;;;;2042924;28;20701;-47
2022/02/09 01:58:41;;;;;;;2.93;2.53;;;;;21.60;101534.00;;;;2031638;29;20972;-46
2022/02/09 01:59:42;;;;;;;3.07;2.77;;;;;21.60;101533.00;;;;2043858;28;20216;-46
2022/02/09 02:00:43;;;;;;;3.47;2.35;;;;;21.60;101520.00;;;;2041980;28;20684;-47
2022/02/09 02:01:43;;;;;;;2.67;2.40;;;;;21.60;101531.00;;;;2039986;29;20217;-47
2022/02/09 02:02:43;;;;;;;3.00;2.70;;;;;21.60;101526.00;;;;2039464;29;20213;-47
2022/02/09 02:03:44;;;;;;;3.00;2.70;;;;;21.60;101521.00;;;;2039650;29;20339;-47
2022/02/09 02:04:46;;;;;;;3.90;2.87;;;;;21.60;101522.00;;;;2039424;29;20213;-46
2022/02/09 02:05:46;;;;;;;3.40;2.25;;;;;21.60;101525.00;;;;2038277;29;20263;-47
2022/02/09 02:06:49;;;;;;;2.50;2.30;;;;;21.60;101507.00;;;;2039023;28;20241;-47
2022/02/09 02:07:54;;;;;;;2.80;2.50;;;;;21.60;101515.00;;;;2031929;29;20461;-47
2022/02/09 02:08:54;;;;;;;2.70;2.30;;;;;21.60;101523.00;;;;2024074;29;20229;-47
2022/02/09 02:10:01;;;;;;;2.67;2.13;;;;;21.60;101533.00;;;;2028541;29;20596;-47
2022/02/09 02:11:14;;;;;;;3.17;2.50;;;;;21.60;101523.00;;;;2035650;28;20216;-47
2022/02/09 02:12:19;;;;;;;2.38;2.17;;;;;21.60;101517.00;;;;2039480;28;20356;-46
2022/02/09 02:13:52;;;;;;;2.45;2.25;;;;;21.60;101519.00;;;;2040145;29;20216;-46
2022/02/09 02:15:00;;;;;;;2.00;1.77;;;;;21.60;101517.00;;;;2047049;28;20216;-47
2022/02/09 02:17:12;;;;;;;2.63;2.43;;;;;21.60;101520.00;;;;2047903;28;20665;-47
2022/02/09 02:18:13;;;;;;;2.10;1.90;;;;;21.60;101526.00;;;;2047645;28;20212;-46
2022/02/09 02:20:36;;;;;;;1.98;1.65;;;;;21.60;101522.00;;;;2047579;28;20708;-47
2022/02/09 02:21:57;;;;;;;3.67;1.98;;;;;21.60;101521.00;;;;2047727;28;20212;-48
2022/02/09 02:25:42;;;;;;;2.43;2.23;;;;;21.60;101517.00;;;;2047683;28;20219;-47
2022/02/09 02:27:31;;;;;;;2.80;2.47;;;;;21.60;101516.00;;;;2047146;28;20208;-47
2022/02/09 02:28:31;;;;;;;2.85;2.33;;;;;21.60;101521.00;;;;2045698;28;20669;-47
2022/02/09 02:31:15;;;;;;;2.10;1.90;;;;;21.50;101517.00;;;;2046841;28;20713;-47
2022/02/09 02:33:51;;;;;;;2.40;2.20;;;;;21.50;101502.00;;;;2047147;28;20216;-47
2022/02/09 02:57:51;;;;;;;3.53;3.00;;;;;21.50;101495.00;;;;2046450;28;20219;-46
2022/02/09 03:09:09;;;;;;;2.63;2.42;;;;;21.40;101486.00;;;;2046264;28;20212;-47
2022/02/09 03:10:32;;;;;;;2.72;2.53;;;;;21.40;101489.00;;;;2046938;28;20215;-47
2022/02/09 03:12:46;;;;;;;2.67;2.47;;;;;21.40;101479.00;;;;2044613;28;20291;-47
2022/02/09 03:14:01;;;;;;;2.70;2.50;;;;;21.40;101482.00;;;;2047357;28;20227;-47
2022/02/09 03:15:19;;;;;;;2.80;2.60;;;;;21.40;101477.00;;;;2041909;28;20220;-48
2022/02/09 03:16:35;;;;;;;3.05;2.85;;;;;21.40;101489.00;;;;2044320;28;20291;-47
2022/02/09 03:17:39;;;;;;;3.08;2.78;;;;;21.40;101484.00;;;;2044474;28;20220;-47
2022/02/09 03:19:52;;;;;;;2.40;2.20;;;;;21.40;101482.00;;;;2046994;28;20224;-47
2022/02/09 03:21:06;;;;;;;3.40;3.10;;;;;21.40;101482.00;;;;2035957;28;20271;-47
2022/02/09 03:23:46;;;;;;;2.42;2.22;;;;;21.40;101483.00;;;;2046050;28;20212;-47
2022/02/09 03:27:07;;;;;;;2.70;2.50;;;;;21.40;101488.00;;;;2046300;28;20302;-47
2022/02/09 03:42:54;;;;;;;2.90;2.70;;;;;21.30;101484.00;;;;2034461;29;20302;-62
2022/02/09 03:45:41;;;;;;;2.78;2.53;;;;;21.40;101490.00;;;;2059340;28;20215;-62
2022/02/09 03:49:09;;;;;;;2.43;2.23;;;;;21.30;101487.00;;;;2058954;28;20282;-62
2022/02/09 03:50:43;;;;;;;3.28;2.60;;;;;21.30;101493.00;;;;2059054;28;20249;-62
2022/02/09 03:53:17;;;;;;;2.75;2.22;;;;;21.30;101483.00;;;;2058952;28;20301;-62
2022/02/09 03:54:57;;;;;;;2.70;2.50;;;;;21.30;101479.00;;;;2059115;28;20651;-63
2022/02/09 03:57:56;;;;;;;2.85;2.65;;;;;21.30;101467.00;;;;2059962;28;20269;-62
2022/02/09 03:58:57;;;;;;;2.50;2.30;;;;;21.30;101469.00;;;;2058943;28;20219;-62
2022/02/09 03:59:59;;;;;;;2.70;2.50;;;;;21.30;101461.00;;;;2057410;28;20722;-62
2022/02/09 04:00:59;;;;;;;2.53;2.33;;;;;21.30;101466.00;;;;2058553;28;20582;-63
2022/02/09 04:02:00;;;;;;;2.70;2.50;;;;;21.30;101465.00;;;;2059118;28;20898;-62
2022/02/09 04:03:01;;;;;;;2.90;2.60;;;;;21.30;101461.00;;;;2058591;28;20715;-62
2022/02/09 04:04:02;;;;;;;3.08;2.72;;;;;21.30;101461.00;;;;2059339;28;20323;-62
2022/02/09 04:05:02;;;;;;;3.10;2.90;;;;;21.30;101454.00;;;;2060238;28;20223;-62
2022/02/09 04:06:03;;;;;;;3.00;2.80;;;;;21.30;101463.00;;;;2060284;28;20242;-62
2022/02/09 04:07:03;;;;;;;3.13;2.83;;;;;21.30;101459.00;;;;2058206;28;20466;-63
2022/02/09 04:08:05;;;;;;;2.80;2.60;;;;;21.30;101462.00;;;;2056857;28;20233;-63
2022/02/09 04:09:09;;;;;;;2.70;2.50;;;;;21.30;101460.00;;;;2061723;28;20215;-62
2022/02/09 04:10:14;;;;;;;3.10;2.80;;;;;21.30;101457.00;;;;2059976;28;20215;-63
2022/02/09 04:11:23;;;;;;;2.65;2.45;;;;;21.30;101452.00;;;;2059168;28;20215;-62
2022/02/09 04:12:35;;;;;;;2.97;2.78;;;;;21.30;101454.00;;;;2056837;28;20753;-63
2022/02/09 04:14:47;;;;;;;3.00;2.80;;;;;21.30;101461.00;;;;2059488;28;20622;-62
2022/02/09 04:15:57;;;;;;;3.17;2.97;;;;;21.30;101454.00;;;;2061009;28;20305;-63
2022/02/09 04:18:45;;;;;;;3.00;2.70;;;;;21.30;101451.00;;;;2058986;28;20218;-63
2022/02/09 04:22:50;;;;;;;2.65;2.45;;;;;21.30;101452.00;;;;2058319;28;20948;-63
2022/02/09 04:38:06;;;;;;;2.73;2.53;;;;;21.20;101440.00;;;;2055719;28;20220;-62
2022/02/09 04:39:29;;;;;;;3.05;2.85;;;;;21.20;101453.00;;;;2058989;28;20217;-63
2022/02/09 04:41:17;;;;;;;2.72;2.53;;;;;21.20;101446.00;;;;2058779;28;20218;-63
2022/02/09 04:44:51;;;;;;;3.42;3.13;;;;;21.20;101451.00;;;;2037631;29;20846;-63
2022/02/09 04:50:50;;;;;;;3.08;2.53;;;;;21.20;101447.00;;;;2060094;28;20223;-62
2022/02/09 04:59:03;;;;;;;2.87;2.67;;;;;21.20;101446.00;;;;2055710;28;20723;-62
2022/02/09 05:01:23;;;;;;;2.92;2.42;;;;;21.20;101446.00;;;;2058195;28;20231;-62
2022/02/09 05:05:07;;;;;;;2.80;2.60;;;;;21.20;101432.00;;;;2059155;28;20211;-63
2022/02/09 05:26:07;;;;;;;3.23;2.93;;;;;21.10;101434.00;;;;2058371;28;20570;-63
2022/02/09 05:28:20;;;;;;;2.90;2.70;;;;;21.10;101427.00;;;;2059345;28;20222;-62
2022/02/09 05:29:21;;;;;;;3.67;2.80;;;;;21.10;101431.00;;;;2056219;28;20223;-62
2022/02/09 05:30:22;;;;;;;3.10;2.80;;;;;21.10;101429.00;;;;2058740;28;20219;-62
2022/02/09 05:31:22;;;;;;;3.25;2.95;;;;;21.10;101428.00;;;;2058073;28;20214;-63
2022/02/09 05:32:22;;;;;;;2.90;2.70;;;;;21.10;101428.00;;;;2055869;28;20207;-63
2022/02/09 05:33:23;;;;;;;3.10;2.80;;;;;21.10;101427.00;;;;2058271;28;20265;-63
2022/02/09 05:34:23;;;;;;;2.57;2.37;;;;;21.10;101426.00;;;;2058994;28;20199;-63
2022/02/09 05:35:23;;;;;;;2.73;2.53;;;;;21.10;101426.00;;;;2059650;28;20277;-62
2022/02/09 05:36:24;;;;;;;2.90;2.70;;;;;21.10;101431.00;;;;2059496;28;20208;-63
2022/02/09 05:37:24;;;;;;;2.70;2.50;;;;;21.10;101419.00;;;;2055162;28;20698;-63
2022/02/09 05:38:24;;;;;;;3.00;2.80;;;;;21.10;101424.00;;;;2058870;28;20718;-63
2022/02/09 05:39:25;;;;;;;2.80;2.60;;;;;21.10;101434.00;;;;2057957;28;20223;-62
2022/02/09 05:40:25;;;;;;;2.50;2.30;;;;;21.10;101416.00;;;;2057992;28;20215;-63
2022/02/09 05:41:25;;;;;;;2.43;2.23;;;;;21.10;101420.00;;;;2058240;28;20227;-62
2022/02/09 05:42:26;;;;;;;2.87;2.60;;;;;21.10;101423.00;;;;2056070;28;20277;-62
2022/02/09 05:43:27;;;;;;;2.07;1.97;;;;;21.10;101432.00;;;;2062028;28;20214;-63
2022/02/09 05:44:28;;;;;;;2.60;2.40;;;;;21.10;101428.00;;;;2058068;28;20219;-63
2022/02/09 05:45:42;;;;;;;2.37;2.17;;;;;21.10;101419.00;;;;2058051;28;20207;-63
2022/02/09 05:49:47;;;;;;;2.40;2.20;;;;;21.10;101431.00;;;;2051569;28;20773;-63
2022/02/09 05:51:55;;;;;;;2.60;2.37;;;;;21.10;101432.00;;;;2059103;28;20211;-62
2022/02/09 05:55:36;;;;;;;2.80;2.60;;;;;21.10;101412.00;;;;2058655;28;20215;-63
2022/02/09 05:56:41;;;;;;;2.60;2.40;;;;;21.00;101429.00;;;;2057672;28;20715;-63
2022/02/09 05:57:46;;;;;;;2.28;2.08;;;;;21.10;101410.00;;;;2057950;28;20327;-63
2022/02/09 05:58:50;;;;;;;2.55;2.17;;;;;21.00;101417.00;;;;2062192;28;20225;-62
2022/02/09 05:59:51;;;;;;;2.05;1.95;;;;;21.00;101416.00;;;;2062192;28;20223;-62
2022/02/09 06:00:51;;;;;;;2.63;2.20;;;;;21.00;101378.00;;;;2062883;28;20215;-62
2022/02/09 06:01:51;;;;;;;1.90;1.73;;;;;21.00;101419.00;;;;2058864;28;20210;-63
2022/02/09 06:02:52;;;;;;;3.00;2.70;;;;;21.00;101418.00;;;;2055880;28;20242;-63
2022/02/09 06:03:52;;;;;;;2.30;1.77;;;;;21.00;101426.00;;;;2058686;28;20705;-63
2022/02/09 06:04:52;;;;;;;3.10;1.90;;;;;21.00;101422.00;;;;2058773;28;20581;-63
2022/02/09 06:05:53;;;;;;;2.43;1.97;;;;;21.10;101427.00;;;;2058887;28;20827;-63
2022/02/09 06:06:53;;;;;;;2.47;2.27;;;;;21.00;101423.00;;;;2059341;28;20302;-63
2022/02/09 06:07:54;;;;;;;2.17;1.97;;;;;21.00;101419.00;;;;2056947;28;20223;-62
2022/02/09 06:08:55;;;;;;;2.60;1.87;;;;;21.10;101422.00;;;;2058682;28;20238;-62
2022/02/09 06:09:56;;;;;;;1.77;1.67;;;;;21.10;101428.00;;;;2058757;28;20211;-63
2022/02/09 06:11:12;;;;;;;1.70;1.60;;;;;21.00;101426.00;;;;2058605;28;20215;-63
2022/02/09 06:12:20;;;;;;;2.03;1.83;;;;;21.10;101432.00;;;;2058322;28;20210;-62
2022/02/09 06:13:44;;;;;;;3.75;1.65;;;;;21.10;101427.00;;;;2047781;28;20261;-62
2022/02/09 06:19:53;;;;;;;2.17;1.70;;;;;21.10;101439.00;;;;2059189;28;20210;-62
2022/02/09 06:20:57;;;;;;;2.15;1.42;;;;;21.10;101431.00;;;;2057865;28;20273;-62
2022/02/09 06:21:58;;;;;;;1.33;1.23;;;;;21.10;101427.00;;;;2058542;28;20215;-63
2022/02/09 06:22:58;;;;;;;1.23;1.13;;;;;21.10;101431.00;;;;2056097;28;20246;-62
2022/02/09 06:23:59;;;;;;;1.30;1.20;;;;;21.10;101432.00;;;;2059335;28;20239;-63
2022/02/09 06:25:00;;;;;;;3.00;1.17;;;;;21.10;101426.00;;;;2058995;28;20223;-63
2022/02/09 06:26:04;;;;;;;1.50;1.40;;;;;21.10;101432.00;;;;2058793;28;20780;-62
2022/02/09 06:27:05;;;;;;;1.30;1.13;;;;;21.10;101429.00;;;;2058623;28;20235;-62
2022/02/09 06:28:05;;;;;;;1.73;1.47;;;;;21.20;101425.00;;;;2055229;28;20308;-63
2022/02/09 06:29:05;;;;;;;1.13;1.03;;;;;21.20;101420.00;;;;2058049;28;20218;-63
2022/02/09 06:30:06;;;;;;;1.77;1.37;;;;;21.20;101434.00;;;;2057999;28;20216;-63
2022/02/09 06:31:06;;;;;;;3.03;1.20;;;;;21.20;101431.00;;;;2058317;28;20220;-63
2022/02/09 06:32:08;;;;;;;1.37;1.27;;;;;21.20;101430.00;;;;2058833;28;20708;-63
2022/02/09 06:33:09;;;;;;;1.35;1.00;;;;;21.20;101436.00;;;;2058759;28;20227;-63
2022/02/09 06:34:12;;;;;;;1.20;1.10;;;;;21.20;101439.00;;;;2059331;28;20552;-63
2022/02/09 06:35:12;;;;;;;0.90;0.80;;;;;21.20;101436.00;;;;2062269;28;20262;-63
2022/02/09 06:36:14;;;;;;;1.33;1.20;;;;;21.20;101440.00;;;;2058578;28;20226;-63
2022/02/09 06:37:20;;;;;;;1.40;1.13;;;;;21.20;101432.00;;;;2058638;28;20219;-62
2022/02/09 06:38:21;;;;;;;1.40;1.20;;;;;21.20;101436.00;;;;2058864;28;20216;-63
2022/02/09 06:39:21;;;;;;;0.98;0.82;;;;;21.20;101428.00;;;;2059167;28;20295;-63
2022/02/09 06:40:22;;;;;;;1.50;1.10;;;;;21.20;101441.00;;;;2059071;28;20219;-63
2022/02/09 06:41:22;;;;;;;2.20;1.37;;;;;21.20;101440.00;;;;2059256;28;20246;-63
2022/02/09 06:42:23;;;;;;;1.13;0.97;;;;;21.20;101436.00;;;;2058916;28;20247;-63
2022/02/09 06:43:24;;;;;;;1.67;1.10;;;;;21.20;101426.00;;;;2056383;28;20219;-63
2022/02/09 06:44:25;;;;;;;1.30;1.00;;;;;21.20;101431.00;;;;2059485;28;20603;-63
2022/02/09 06:45:29;;;;;;;1.35;1.25;;;;;21.30;101430.00;;;;2059296;28;20211;-62
2022/02/09 06:46:35;;;;;;;1.40;1.10;;;;;21.30;101430.00;;;;2059466;28;20246;-63
2022/02/09 06:47:37;;;;;;;1.20;1.00;;;;;21.30;101435.00;;;;2058377;28;20226;-63
2022/02/09 06:48:37;;;;;;;1.17;1.00;;;;;21.30;101433.00;;;;2060202;28;20214;-63
2022/02/09 06:49:40;;;;;;;1.10;1.00;;;;;21.30;101434.00;;;;2059530;28;20213;-63
2022/02/09 06:50:48;;;;;;;1.00;0.90;;;;;21.30;101436.00;;;;2059134;28;20214;-63
2022/02/09 06:51:49;;;;;;;1.67;1.08;;;;;21.30;101444.00;;;;2060087;28;20215;-63
2022/02/09 06:53:01;;;;;;;1.10;1.00;;;;;21.30;101437.00;;;;2060423;28;20770;-63
2022/02/09 06:54:07;;;;;;;1.17;1.00;;;;;21.30;101433.00;;;;2059866;28;20215;-63
2022/02/09 06:55:17;;;;;;;1.40;1.10;;;;;21.30;101435.00;;;;2059507;28;20605;-63
2022/02/09 06:56:36;;;;;;;1.80;1.15;;;;;21.30;101425.00;;;;2059191;28;20573;-63
2022/02/09 06:59:10;;;;;;;1.35;1.10;;;;;21.30;101433.00;;;;2059119;28;20388;-63
2022/02/09 07:00:11;;;;;;;1.50;1.00;;;;;21.30;101439.00;;;;2064511;28;20675;-63
2022/02/09 07:01:12;;;;;;;1.77;1.23;;;;;21.30;101435.00;;;;2057264;28;20223;-62
2022/02/09 07:02:12;;;;;;;1.20;1.10;;;;;21.30;101439.00;;;;2067943;28;20218;-63
2022/02/09 07:03:13;;;;;;;1.67;1.03;;;;;21.30;101440.00;;;;2066693;28;20588;-63
2022/02/09 07:04:13;;;;;;;1.35;1.20;;;;;21.30;101434.00;;;;2060785;28;20222;-62
2022/02/09 07:05:14;;;;;;;1.63;1.30;;;;;21.30;101440.00;;;;2060679;28;20222;-63
2022/02/09 07:06:14;;;;;;;1.83;1.10;;;;;21.30;101424.00;;;;2060127;28;20214;-62
2022/02/09 07:07:15;;;;;;;1.40;1.30;;;;;21.30;101445.00;;;;2059719;28;20796;-63
2022/02/09 07:08:15;;;;;;;1.33;1.13;;;;;21.30;101432.00;;;;2059732;28;20718;-63
2022/02/09 07:09:16;;;;;;;3.53;1.60;;;;;21.40;101439.00;;;;2054178;28;20310;-63
2022/02/09 07:10:16;;;;;;;1.50;1.20;;;;;21.40;101435.00;;;;2060050;28;20239;-63
2022/02/09 07:11:17;;;;;;;2.53;0.97;;;;;21.40;101445.00;;;;2055533;28;20572;-63
2022/02/09 07:12:18;;;;;;;1.13;0.93;;;;;21.40;101394.00;;;;2060046;28;20238;-63
2022/02/09 07:13:19;;;;;;;1.25;1.02;;;;;21.40;101437.00;;;;2059684;28;20218;-63
2022/02/09 07:14:23;;;;;;;1.40;1.20;;;;;21.40;101444.00;;;;2059579;28;20293;-63
2022/02/09 07:15:31;;;;;;;1.20;1.10;;;;;21.40;101441.00;;;;2059159;28;20473;-63
2022/02/09 07:16:31;;;;;;;1.13;1.02;;;;;21.40;101445.00;;;;2059284;28;20215;-63
2022/02/09 07:17:32;;;;;;;1.50;1.10;;;;;21.40;101440.00;;;;2062033;28;20294;-63
2022/02/09 07:18:32;;;;;;;1.83;1.30;;;;;21.40;101439.00;;;;2059606;28;20223;-63
2022/02/09 07:19:33;;;;;;;1.20;1.10;;;;;21.40;101437.00;;;;2060052;28;20226;-62
2022/02/09 07:20:43;;;;;;;1.47;1.10;;;;;21.20;101439.00;;;;2059662;28;20215;-63
2022/02/09 07:21:44;;;;;;;1.60;1.25;;;;;21.40;101441.00;;;;2061886;28;21195;-63
2022/02/09 07:22:46;;;;;;;2.57;1.53;;;;;21.40;101433.00;;;;2059040;28;20230;-63
2022/02/09 07:23:52;;;;;;;1.40;1.20;;;;;21.40;101437.00;;;;2059515;28;20278;-63
2022/02/09 07:25:03;;;;;;;2.17;1.17;;;;;21.40;101444.00;;;;2060221;28;20306;-63
2022/02/09 07:26:17;;;;;;;1.40;1.08;;;;;21.40;101440.00;;;;2059258;28;20302;-63
2022/02/09 07:27:27;;;;;;;1.20;1.10;;;;;21.40;101429.00;;;;2052352;28;20719;-63
2022/02/09 07:28:28;;;;;;;1.33;1.20;;;;;21.40;101434.00;;;;2055934;28;20219;-63
2022/02/09 07:29:30;;;;;;;2.13;1.57;;;;;21.40;101438.00;;;;2059146;28;20580;-64
2022/02/09 07:30:31;;;;;;;2.40;1.50;;;;;21.40;101434.00;;;;2059360;28;20278;-65
2022/02/09 07:31:31;;;;;;;4.67;1.50;;;;;21.40;101436.00;;;;2059405;28;20251;-64
2022/02/09 07:32:31;;;;;;;3.33;1.20;;;;;21.40;101437.00;;;;2060068;28;20222;-64
2022/02/09 07:33:32;;;;;;;3.30;1.50;;;;;21.40;101441.00;;;;2060101;28;20211;-64
2022/02/09 07:34:32;;;;;;;6.20;2.00;;;;;21.40;101429.00;;;;2060009;28;20258;-64
2022/02/09 07:35:32;;;;;;;2.80;1.60;;;;;21.40;101433.00;;;;2063063;28;20211;-64
2022/02/09 07:36:35;;;;;;;2.30;1.57;;;;;21.40;101428.00;;;;2059589;28;20215;-64
2022/02/09 07:37:36;;;;;;;2.53;1.70;;;;;21.50;101434.00;;;;2059592;28;20219;-63
2022/02/09 07:38:36;;;;;;;3.43;1.60;;;;;21.50;101440.00;;;;2059642;28;20212;-63
2022/02/09 07:39:38;;;;;;;1.97;1.77;;;;;21.50;101429.00;;;;2060186;28;20226;-63
2022/02/09 07:40:40;;;;;;;2.88;1.95;;;;;21.50;101431.00;;;;2059406;28;20212;-64
2022/02/09 07:41:43;;;;;;;3.08;1.77;;;;;21.50;101424.00;;;;2059668;28;20202;-63
2022/02/09 07:42:48;;;;;;;1.90;1.33;;;;;21.50;101440.00;;;;2059739;28;20214;-63
2022/02/09 07:44:03;;;;;;;3.03;1.48;;;;;21.60;101433.00;;;;2059574;28;20211;-63
2022/02/09 07:45:28;;;;;;;2.92;1.35;;;;;21.60;101429.00;;;;2062682;28;20226;-63
2022/02/09 07:47:32;;;;;;;2.42;1.40;;;;;21.60;101431.00;;;;2059415;28;20222;-63
2022/02/09 07:49:08;;;;;;;2.45;1.65;;;;;21.60;101430.00;;;;2059912;28;20260;-64
2022/02/09 07:50:30;;;;;;;2.00;1.30;;;;;21.60;101437.00;;;;2059723;28;20281;-63
2022/02/09 07:52:55;;;;;;;2.92;1.45;;;;;21.60;101430.00;;;;2057462;28;20221;-63
2022/02/09 07:54:00;;;;;;;2.38;1.70;;;;;21.60;101432.00;;;;2059313;28;20239;-64
2022/02/09 07:55:00;;;;;;;2.45;1.50;;;;;21.60;101429.00;;;;2059170;28;20215;-64
2022/02/09 07:56:01;;;;;;;2.90;1.60;;;;;21.60;101428.00;;;;2060436;28;20590;-64
2022/02/09 07:57:01;;;;;;;1.90;1.00;;;;;21.60;101419.00;;;;2060334;28;20207;-63
2022/02/09 07:58:02;;;;;;;1.63;1.40;;;;;21.60;101430.00;;;;2056257;28;20211;-64
2022/02/09 07:59:09;;;;;;;2.75;1.40;;;;;21.60;101422.00;;;;2060319;28;20234;-64
2022/02/09 08:00:13;;;;;;;1.27;1.10;;;;;21.60;101431.00;;;;2059610;28;20227;-64
2022/02/09 08:01:13;;;;;;;3.40;1.70;;;;;21.60;101423.00;;;;2059967;28;20245;-64
2022/02/09 08:02:13;;;;;;;5.07;1.40;;;;;21.60;101422.00;;;;2057690;28;20224;-64
2022/02/09 08:03:14;;;;;;;2.17;1.67;;;;;21.60;101426.00;;;;2048592;28;20250;-63
2022/02/09 08:04:14;;;;;;;4.77;1.43;;;;;21.60;101410.00;;;;2066749;28;20679;-63
2022/02/09 08:05:14;;;;;;;2.00;1.30;;;;;21.60;101404.00;;;;2058746;28;20686;-63
2022/02/09 08:06:17;;;;;;;3.33;1.63;;;;;21.60;101412.00;;;;2058442;28;20318;-63
2022/02/09 08:07:17;;;;;;;1.45;1.20;;;;;21.60;101423.00;;;;2059315;28;20223;-64
2022/02/09 08:08:18;;;;;;;2.03;1.50;;;;;21.60;101427.00;;;;2054936;28;20300;-64
2022/02/09 08:22:39;;;;;;;2.20;1.65;;;;;21.70;101421.00;;;;2059519;28;20215;-63
2022/02/09 08:23:40;;;;;;;3.15;2.05;;;;;21.70;101413.00;;;;2054621;28;20586;-63
2022/02/09 08:26:34;;;;;;;3.45;2.30;;;;;21.70;101421.00;;;;2052758;28;20643;-63
2022/02/09 08:28:45;;;;;;;4.77;3.97;;;;;21.70;101414.00;;;;2057189;28;21188;-63
2022/02/09 08:30:00;;;;;;;4.63;3.92;;;;;21.70;101416.00;;;;2060766;28;20211;-63
2022/02/09 08:31:22;;;;;;;6.00;5.22;;;;;21.70;101418.00;;;;2058354;28;20214;-63
2022/02/09 08:33:30;;;;;;;8.18;6.55;;;;;21.70;101418.00;;;;2056821;28;20298;-64
2022/02/09 08:34:31;;;;;;;10.23;7.73;;;;;21.70;101420.00;;;;2058552;28;20227;-64
2022/02/09 08:35:31;;;;;;;9.80;8.60;;;;;21.70;101416.00;;;;2059056;28;20214;-63
2022/02/09 08:36:31;;;;;;;11.63;9.37;;;;;21.70;101426.00;;;;2060040;28;20553;-64
2022/02/09 08:37:32;;;;;;;11.20;9.30;;;;;21.80;101420.00;;;;2059887;28;20246;-64
2022/02/09 08:38:32;;;;;;;13.03;11.07;;;;;21.80;101426.00;;;;2058502;28;20253;-64
2022/02/09 08:39:33;;;;;;;13.27;11.53;;;;;21.80;101411.00;;;;2058601;28;20211;-64
2022/02/09 08:40:35;;;;;;;13.90;12.10;;;;;21.80;101422.00;;;;2058782;28;20206;-64
2022/02/09 08:41:35;;;;;;;15.70;13.20;;;;;21.80;101412.00;;;;2059130;28;20207;-64
2022/02/09 08:42:38;;;;;;;17.67;13.73;;;;;21.80;101421.00;;;;2059800;28;20215;-64
2022/02/09 08:43:38;;;;;;;18.00;14.95;;;;;21.80;101422.00;;;;2055013;28;20303;-64
2022/02/09 08:44:38;;;;;;;19.33;15.87;;;;;21.80;101417.00;;;;2059954;28;20216;-64
2022/02/09 08:45:39;;;;;;;19.00;15.53;;;;;21.80;101410.00;;;;2059963;28;20226;-64
2022/02/09 08:46:42;;;;;;;18.30;15.33;;;;;21.80;101408.00;;;;2059198;28;20218;-63
2022/02/09 08:47:43;;;;;;;22.30;17.42;;;;;21.80;101415.00;;;;2059016;28;20465;-64
2022/02/09 08:48:43;;;;;;;20.27;17.20;;;;;21.80;101411.00;;;;2056365;28;20234;-64
2022/02/09 08:49:43;;;;;;;21.27;17.60;;;;;21.80;101405.00;;;;2066298;28;20346;-64
2022/02/09 08:50:44;;;;;;;21.80;17.17;;;;;21.80;101406.00;;;;2067105;28;20277;-63
2022/02/09 08:51:44;;;;;;;23.70;18.97;;;;;21.80;101404.00;;;;2060093;28;20216;-63
2022/02/09 08:52:44;;;;;;;24.03;19.00;;;;;21.80;101411.00;;;;2060127;28;20223;-62
2022/02/09 08:53:45;;;;;;;22.00;19.17;;;;;21.80;101413.00;;;;2059972;28;20214;-62
2022/02/09 08:54:48;;;;;;;22.53;19.40;;;;;21.80;101415.00;;;;2059351;28;20236;-62
2022/02/09 08:55:48;;;;;;;24.50;20.05;;;;;21.80;101412.00;;;;2061507;28;20218;-62
2022/02/09 08:56:48;;;;;;;24.70;19.80;;;;;21.80;101407.00;;;;2061518;28;20223;-62
2022/02/09 08:57:49;;;;;;;25.43;20.03;;;;;21.80;101410.00;;;;2061456;28;20214;-62
2022/02/09 08:58:49;;;;;;;28.30;19.93;;;;;21.80;101407.00;;;;2060833;28;20282;-63
2022/02/09 08:59:51;;;;;;;26.93;21.07;;;;;21.80;101402.00;;;;2060604;28;20273;-62
2022/02/09 09:00:57;;;;;;;24.38;20.63;;;;;21.80;101410.00;;;;2060612;28;20218;-62
2022/02/09 09:02:04;;;;;;;24.98;20.30;;;;;21.80;101401.00;;;;2061451;28;20212;-62
2022/02/09 09:03:12;;;;;;;25.45;21.63;;;;;21.80;101402.00;;;;2060692;28;20303;-62
2022/02/09 09:04:19;;;;;;;27.65;20.90;;;;;21.80;101401.00;;;;2061048;28;20218;-63
2022/02/09 09:05:25;;;;;;;27.08;21.10;;;;;21.80;101399.00;;;;2062109;28;20702;-62
2022/02/09 09:06:27;;;;;;;25.35;21.23;;;;;21.80;101397.00;;;;2058672;28;20258;-62
2022/02/09 09:07:34;;;;;;;26.42;22.30;;;;;21.90;101408.00;;;;2059861;28;20235;-62
2022/02/09 09:08:48;;;;;;;29.75;23.30;;;;;21.80;101413.00;;;;2056607;28;20214;-62
2022/02/09 09:09:59;;;;;;;25.55;22.20;;;;;21.90;101399.00;;;;2057704;28;20225;-62
2022/02/09 09:11:18;;;;;;;25.98;22.38;;;;;21.90;101406.00;;;;2056963;28;20210;-62
2022/02/09 09:25:23;;;;;;;29.73;24.63;;;;;21.90;101407.00;;;;2059727;28;20219;-64
2022/02/09 09:41:49;;;;;;;31.58;25.10;;;;;21.90;101401.00;;;;2058718;28;20219;-64
2022/02/09 09:59:49;;;;;;;27.70;21.45;;;;;22.00;101390.00;;;;2058294;28;20210;-63
2022/02/09 10:02:14;;;;;;;27.05;21.05;;;;;22.00;101397.00;;;;2053700;28;20222;-63
2022/02/09 10:03:48;;;;;;;30.15;22.88;;;;;22.00;101389.00;;;;2062902;28;20214;-64
2022/02/09 10:31:02;;;;;;;30.42;23.35;;;;;22.00;101402.00;;;;2058456;28;20226;-63
2022/02/09 10:32:58;;;;;;;22.08;16.77;;;;;22.00;101406.00;;;;2060315;28;20237;-63
2022/02/09 10:34:05;;;;;;;22.33;18.50;;;;;21.90;101402.00;;;;2057270;28;20214;-63
2022/02/09 10:35:28;;;;;;;22.10;17.70;;;;;21.90;101411.00;;;;2059114;28;20222;-63
2022/02/09 10:36:29;;;;;;;20.90;16.80;;;;;21.90;101412.00;;;;2059978;28;20219;-63
2022/02/09 10:37:29;;;;;;;21.53;16.27;;;;;21.90;101404.00;;;;2060340;28;20259;-63
2022/02/09 10:38:37;;;;;;;21.50;16.80;;;;;21.90;101408.00;;;;2059565;28;20215;-63
2022/02/09 10:40:55;;;;;;;19.73;16.70;;;;;21.90;101402.00;;;;2059470;28;20281;-63
2022/02/09 10:42:13;;;;;;;19.80;16.00;;;;;21.90;101397.00;;;;2059807;28;20286;-63
2022/02/09 10:43:34;;;;;;;24.90;17.80;;;;;21.90;101416.00;;;;2059437;28;20712;-63
2022/02/09 10:45:28;;;;;;;20.48;16.98;;;;;21.90;101401.00;;;;2059903;28;20622;-63
2022/02/09 10:46:27;;;;;;;21.98;17.27;;;;;21.90;101396.00;;;;2059831;28;20702;-63
2022/02/09 10:47:31;;;;;;;21.13;15.40;;;;;21.90;101395.00;;;;2059387;28;20240;-63
2022/02/09 10:48:36;;;;;;;24.60;18.17;;;;;21.90;101395.00;;;;2059259;28;20219;-63
2022/02/09 10:49:36;;;;;;;22.60;18.02;;;;;21.90;101398.00;;;;2063069;28;20207;-63
2022/02/09 10:50:38;;;;;;;20.63;17.40;;;;;21.90;101400.00;;;;2058277;28;20743;-62
2022/02/09 10:51:53;;;;;;;27.85;21.00;;;;;21.90;101409.00;;;;2059274;28;20699;-63
2022/02/09 10:52:54;;;;;;;27.65;21.25;;;;;21.90;101401.00;;;;2059414;28;20277;-63
2022/02/09 10:54:08;;;;;;;34.65;24.50;;;;;21.90;101401.00;;;;2059423;28;20231;-64
2022/02/09 10:55:34;;;;;;;35.08;24.65;;;;;21.90;101401.00;;;;2059139;28;20298;-63